Time;durP1;ratioP1;P1;durP2;ratioP2;P2;SDS_P1;SDS_P2;PMS_P1;PMS_P2;Temp;Humidity;BMP_temperature;BMP_pressure;BME280_temperature;BME280_humidity;BME280_pressure;Samples;Min_cycle;Max_cycle;Signal;HPM_P1;HPM_P2
2022/08/28 00:01:36;;;;;;;1999.90;999.90;;;;;;;18.42;76.67;99259.75;10182241;23;20029;-82
2022/08/28 00:06:13;;;;;;;1999.90;999.90;;;;;;;18.40;76.44;99267.72;10181604;23;20083;-82
2022/08/28 00:10:25;;;;;;;1999.90;999.90;;;;;;;18.41;76.43;99263.31;10175276;23;20029;-82
2022/08/28 00:14:56;;;;;;;1999.90;999.90;;;;;;;18.40;76.16;99256.34;10179229;23;20025;-81
2022/08/28 00:19:27;;;;;;;1999.90;999.90;;;;;;;18.41;76.28;99256.28;10181277;23;20021;-82
2022/08/28 00:24:47;;;;;;;1999.90;999.90;;;;;;;18.38;76.93;99260.78;10128642;23;20028;-82
2022/08/28 00:29:29;;;;;;;1999.90;999.90;;;;;;;18.35;76.80;99261.78;10181008;23;20036;-81
2022/08/28 00:34:34;;;;;;;1999.90;999.90;;;;;;;18.36;77.11;99263.47;10161169;23;20324;-82
2022/08/28 00:54:51;;;;;;;1999.90;999.90;;;;;;;18.28;76.88;99265.53;10366525;22;20114;-81
2022/08/28 00:59:20;;;;;;;1999.90;999.90;;;;;;;18.28;77.13;99264.69;10349259;22;20031;-81
2022/08/28 01:04:04;;;;;;;1999.90;999.90;;;;;;;18.21;78.39;99266.69;10196753;22;20021;-81
2022/08/28 01:08:53;;;;;;;1999.90;999.90;;;;;;;18.24;77.71;99270.97;10188702;23;20032;-82
2022/08/28 01:13:27;;;;;;;1999.90;999.90;;;;;;;18.25;77.20;99272.69;10187093;23;20017;-82
2022/08/28 01:17:55;;;;;;;1999.90;999.90;;;;;;;18.26;76.57;99266.50;10187593;23;20029;-81
2022/08/28 01:23:00;;;;;;;1999.90;999.90;;;;;;;18.26;76.66;99272.63;10197250;23;20044;-81
2022/08/28 01:27:42;;;;;;;1999.90;999.90;;;;;;;18.27;76.73;99276.97;10194935;23;20583;-82
2022/08/28 01:32:31;;;;;;;1999.90;999.90;;;;;;;18.27;76.45;99265.59;10208452;23;20733;-81
2022/08/28 01:37:11;;;;;;;1999.90;999.90;;;;;;;18.27;76.57;99268.22;10187216;23;20025;-81
2022/08/28 01:41:47;;;;;;;1999.90;999.90;;;;;;;18.24;76.52;99263.94;10130206;23;20436;-82
2022/08/28 01:46:05;;;;;;;1999.90;999.90;;;;;;;18.14;77.82;99269.63;10201740;23;20094;-82
2022/08/28 01:50:59;;;;;;;;;;;;;;;18.03;79.21;99270.84;10202975;23;20018;-82
2022/08/28 01:55:37;;;;;;;1999.90;999.90;;;;;;;17.93;79.57;99268.59;10204199;23;19921;-82
2022/08/28 01:59:45;;;;;;;1999.90;999.90;;;;;;;17.90;79.98;99272.22;10186292;23;20755;-82
2022/08/28 02:04:25;;;;;;;1999.90;999.90;;;;;;;17.87;80.28;99272.31;10185505;23;20021;-81
2022/08/28 02:08:54;;;;;;;1999.90;999.90;;;;;;;17.77;80.18;99273.53;10207407;23;20084;-82
2022/08/28 02:13:10;;;;;;;1999.90;999.90;;;;;;;17.67;80.57;99273.00;10186904;23;20022;-82
2022/08/28 02:18:03;;;;;;;1999.90;999.90;;;;;;;17.55;81.49;99269.94;10167351;23;20029;-82
2022/08/28 02:22:32;;;;;;;1999.90;999.90;;;;;;;17.46;82.09;99264.09;10238547;23;20136;-82
2022/08/28 02:27:01;;;;;;;1999.90;999.90;;;;;;;17.37;82.25;99271.41;10215725;23;20031;-82
2022/08/28 02:31:41;;;;;;;1999.90;999.90;;;;;;;17.38;82.81;99268.75;10231869;23;20021;-82
2022/08/28 02:35:59;;;;;;;1999.90;999.90;;;;;;;17.42;83.12;99274.78;10183526;23;20025;-81
2022/08/28 02:40:12;;;;;;;1999.90;999.90;;;;;;;17.45;82.27;99267.63;10197206;23;20075;-82
2022/08/28 02:44:24;;;;;;;1999.90;999.90;;;;;;;17.57;81.33;99268.09;10235235;23;20107;-82
2022/08/28 02:48:39;;;;;;;1999.90;999.90;;;;;;;17.64;80.55;99265.22;10270854;23;20099;-82
2022/08/28 02:53:00;;;;;;;1999.90;999.90;;;;;;;17.71;79.73;99258.88;10283615;23;20017;-82
2022/08/28 02:57:18;;;;;;;1999.90;999.90;;;;;;;17.78;79.08;99251.66;10284279;23;20094;-82
2022/08/28 03:01:59;;;;;;;1999.90;999.90;;;;;;;17.84;78.22;99246.16;10277291;23;20051;-82
2022/08/28 03:06:39;;;;;;;1999.90;999.90;;;;;;;17.88;78.05;99246.91;10282526;23;20337;-82
2022/08/28 03:10:52;;;;;;;1999.90;999.90;;;;;;;17.92;77.55;99251.13;10255532;23;20044;-82
2022/08/28 03:15:07;;;;;;;1999.90;999.90;;;;;;;17.97;77.40;99247.44;10279420;23;20063;-82
2022/08/28 03:19:18;;;;;;;1999.90;999.90;;;;;;;18.00;77.29;99251.72;10316486;23;20019;-82
2022/08/28 03:23:44;;;;;;;1999.90;999.90;;;;;;;18.00;77.70;99243.84;10330456;23;20105;-82
2022/08/28 03:28:03;;;;;;;1999.90;999.90;;;;;;;17.89;79.32;99238.09;10303792;23;20034;-81
2022/08/28 03:32:09;;;;;;;1999.90;999.90;;;;;;;17.80;79.94;99237.56;10275090;23;20020;-82
2022/08/28 03:36:20;;;;;;;1999.90;999.90;;;;;;;17.71;80.38;99242.25;10331372;23;20043;-82
2022/08/28 03:40:27;;;;;;;1999.90;999.90;;;;;;;17.67;80.36;99251.13;10297019;23;20059;-82
2022/08/28 03:44:31;;;;;;;1999.90;999.90;;;;;;;17.67;80.57;99249.38;10330695;23;20016;-82
2022/08/28 03:48:39;;;;;;;1999.90;999.90;;;;;;;17.71;81.20;99252.75;10328171;23;20358;-81
2022/08/28 03:52:54;;;;;;;1999.90;999.90;;;;;;;17.71;81.47;99248.38;10308999;22;20844;-81
2022/08/28 03:57:21;;;;;;;1999.90;999.90;;;;;;;17.61;81.50;99246.97;10307388;23;20023;-82
2022/08/28 04:01:24;;;;;;;1999.90;999.90;;;;;;;17.64;82.21;99252.09;10339346;23;20023;-81
2022/08/28 04:05:27;;;;;;;1999.90;999.90;;;;;;;17.65;82.31;99250.34;10305376;23;20406;-82
2022/08/28 04:09:31;;;;;;;1999.90;999.90;;;;;;;17.71;81.06;99248.38;10296737;23;20399;-82
2022/08/28 04:13:52;;;;;;;1999.90;999.90;;;;;;;17.74;80.46;99244.78;10326028;23;20012;-82
2022/08/28 04:18:05;;;;;;;1999.90;999.90;;;;;;;17.82;79.56;99250.63;10322705;23;20572;-82
2022/08/28 04:22:36;;;;;;;1999.90;999.90;;;;;;;17.86;78.43;99244.34;10332456;23;20099;-82
2022/08/28 04:27:08;;;;;;;1999.90;999.90;;;;;;;17.91;78.27;99252.03;10310425;23;20032;-82
2022/08/28 04:31:35;;;;;;;1999.90;999.90;;;;;;;17.96;77.42;99251.00;10305403;23;20024;-82
2022/08/28 04:35:53;;;;;;;1999.90;999.90;;;;;;;18.02;78.58;99268.28;10303816;23;20024;-81
2022/08/28 04:40:04;;;;;;;1999.90;999.90;;;;;;;17.97;79.03;99254.47;10295184;23;20024;-82
2022/08/28 04:44:47;;;;;;;1999.90;999.90;;;;;;;17.90;79.56;99264.31;10329706;23;20024;-82
2022/08/28 04:49:21;;;;;;;1999.90;999.90;;;;;;;17.90;78.62;99266.09;10299864;23;20020;-82
2022/08/28 04:54:06;;;;;;;1999.90;999.90;;;;;;;17.95;77.75;99272.88;10325351;22;20086;-82
2022/08/28 04:58:57;;;;;;;1999.90;999.90;;;;;;;18.02;77.23;99277.03;10292420;23;20047;-82
2022/08/28 05:03:57;;;;;;;1999.90;999.90;;;;;;;18.08;77.30;99287.31;10309739;23;20016;-81
2022/08/28 05:08:39;;;;;;;1999.90;999.90;;;;;;;18.14;76.35;99285.38;10327590;23;20085;-82
2022/08/28 05:13:27;;;;;;;1999.90;999.90;;;;;;;18.20;76.33;99286.00;10330152;23;20026;-82
2022/08/28 05:18:16;;;;;;;1999.90;999.90;;;;;;;18.24;75.87;99292.00;10300584;23;20035;-81
2022/08/28 05:22:46;;;;;;;1999.90;999.90;;;;;;;18.29;76.13;99296.16;10332076;23;20024;-81
2022/08/28 05:27:32;;;;;;;1999.90;999.90;;;;;;;18.35;75.96;99298.56;10321647;23;20035;-81
2022/08/28 05:32:15;;;;;;;1999.90;999.90;;;;;;;18.39;77.22;99300.16;10257037;23;20016;-82
2022/08/28 05:36:56;;;;;;;1999.90;999.90;;;;;;;18.44;76.91;99305.25;10330810;23;20075;-81
2022/08/28 05:42:13;;;;;;;1999.90;999.90;;;;;;;18.43;76.86;99303.53;10331980;23;20581;-82
2022/08/28 05:46:47;;;;;;;1999.90;999.90;;;;;;;18.33;77.44;99310.94;10263303;23;20067;-82
2022/08/28 05:51:00;;;;;;;1999.90;999.90;;;;;;;18.38;76.82;99311.59;10330146;23;20027;-82
2022/08/28 05:55:25;;;;;;;1999.90;999.90;;;;;;;18.49;76.03;99307.69;10302898;23;20399;-80
2022/08/28 05:59:33;;;;;;;1999.90;999.90;;;;;;;18.71;75.21;99306.00;10341531;23;20483;-80
2022/08/28 06:04:08;;;;;;;1999.90;999.90;;;;;;;18.73;74.61;99308.59;10315711;22;20028;-82
2022/08/28 06:08:34;;;;;;;1999.90;999.90;;;;;;;18.83;74.51;99312.53;10281920;23;20047;-82
2022/08/28 06:13:09;;;;;;;1999.90;999.90;;;;;;;18.97;73.50;99324.25;10331302;23;20517;-82
2022/08/28 06:17:21;;;;;;;1999.90;999.90;;;;;;;19.17;73.45;99317.31;10288784;23;20024;-81
2022/08/28 06:21:29;;;;;;;1999.90;999.90;;;;;;;19.33;72.75;99321.03;10329585;23;20028;-82
2022/08/28 06:25:51;;;;;;;1999.90;999.90;;;;;;;19.52;72.01;99326.41;10304324;23;20327;-82
2022/08/28 06:30:30;;;;;;;1999.90;999.90;;;;;;;19.71;70.99;99335.28;10329815;23;20095;-82
2022/08/28 06:35:20;;;;;;;1999.90;999.90;;;;;;;19.94;70.33;99333.47;10272403;23;20144;-82
2022/08/28 06:39:35;;;;;;;1999.90;999.90;;;;;;;20.01;68.96;99334.88;10305469;23;20430;-81
2022/08/28 06:43:54;;;;;;;1999.90;999.90;;;;;;;20.06;68.56;99343.44;10332870;23;20487;-82
2022/08/28 06:48:32;;;;;;;1999.90;999.90;;;;;;;20.08;67.99;99347.72;10271477;23;20027;-82
2022/08/28 06:52:39;;;;;;;1999.90;999.90;;;;;;;20.09;68.25;99364.41;10337469;23;20031;-82
2022/08/28 06:57:10;;;;;;;1999.90;999.90;;;;;;;20.07;67.94;99353.91;10272092;23;20095;-82
2022/08/28 07:01:27;;;;;;;1999.90;999.90;;;;;;;20.00;67.42;99359.53;10285113;23;20028;-81
2022/08/28 07:05:46;;;;;;;1999.90;999.90;;;;;;;19.97;67.92;99349.13;10282257;23;20430;-82
2022/08/28 07:10:30;;;;;;;1999.90;999.90;;;;;;;19.96;68.03;99356.19;10328250;23;20027;-82
2022/08/28 07:15:31;;;;;;;1999.90;999.90;;;;;;;19.98;68.17;99351.69;10327684;23;20090;-81
2022/08/28 07:19:34;;;;;;;1999.90;999.90;;;;;;;20.02;68.15;99362.97;10272541;23;20062;-81
2022/08/28 07:23:42;;;;;;;1999.90;999.90;;;;;;;20.05;68.11;99362.81;10346310;23;20016;-81
2022/08/28 07:27:53;;;;;;;1999.90;999.90;;;;;;;20.13;68.09;99369.50;10332434;23;20024;-81
2022/08/28 07:32:05;;;;;;;1999.90;999.90;;;;;;;20.30;66.71;99365.25;10330510;23;20031;-81
2022/08/28 07:36:15;;;;;;;1999.90;999.90;;;;;;;20.47;65.21;99362.75;10331101;23;20024;-81
2022/08/28 07:40:48;;;;;;;1999.90;999.90;;;;;;;20.62;64.40;99369.94;10293584;23;20024;-79
2022/08/28 07:44:58;;;;;;;1999.90;999.90;;;;;;;20.90;63.98;99376.59;10345325;23;20039;-82
2022/08/28 07:49:07;;;;;;;1999.90;999.90;;;;;;;21.11;63.11;99380.88;10299246;23;20027;-80
2022/08/28 07:53:20;;;;;;;1999.90;999.90;;;;;;;21.27;62.25;99381.03;10301976;22;20024;-82
2022/08/28 07:57:39;;;;;;;1999.90;999.90;;;;;;;21.53;61.52;99388.53;10302267;23;20020;-81
2022/08/28 08:01:46;;;;;;;1999.90;999.90;;;;;;;22.00;59.96;99382.66;10298574;23;20031;-81
2022/08/28 08:06:14;;;;;;;1999.90;999.90;;;;;;;22.31;58.95;99380.16;10330683;23;20028;-81
2022/08/28 08:10:40;;;;;;;1999.90;999.90;;;;;;;22.76;57.77;99383.06;10320431;23;20051;-81
2022/08/28 08:14:43;;;;;;;1999.90;999.90;;;;;;;22.77;56.59;99382.13;10328258;23;20474;-81
2022/08/28 08:18:51;;;;;;;1999.90;999.90;;;;;;;23.02;56.22;99386.97;10295499;23;20619;-82
2022/08/28 08:22:54;;;;;;;1999.90;999.90;;;;;;;23.19;55.38;99395.69;10304714;23;20023;-79
2022/08/28 08:26:59;;;;;;;1999.90;999.90;;;;;;;23.37;55.26;99395.59;10341393;23;20088;-79
2022/08/28 08:31:11;;;;;;;1999.90;999.90;;;;;;;23.75;54.40;99402.22;10308127;23;20547;-80
2022/08/28 08:35:13;;;;;;;;;;;;;;;23.66;53.71;99404.56;10344452;23;20016;-79
2022/08/28 08:39:14;;;;;;;1999.90;999.90;;;;;;;23.39;54.48;99409.63;10299154;23;19970;-80
2022/08/28 08:43:20;;;;;;;1999.90;999.90;;;;;;;23.17;55.51;99409.97;10325661;23;20024;-80
2022/08/28 08:47:48;;;;;;;1999.90;999.90;;;;;;;22.97;55.17;99415.50;10268538;23;20024;-78
2022/08/28 08:52:03;;;;;;;1999.90;999.90;;;;;;;22.71;56.11;99414.22;10295545;23;20143;-79
2022/08/28 08:56:05;;;;;;;1999.90;999.90;;;;;;;22.53;56.50;99416.06;10293346;23;20103;-78
2022/08/28 09:00:09;;;;;;;1999.90;999.90;;;;;;;22.33;57.59;99422.41;10319942;22;20020;-79
2022/08/28 09:04:45;;;;;;;1999.90;999.90;;;;;;;22.15;57.98;99426.84;10262004;23;20419;-79
2022/08/28 09:08:51;;;;;;;1999.90;999.90;;;;;;;21.97;57.98;99423.31;10319182;23;20016;-79
2022/08/28 09:12:53;;;;;;;1999.90;999.90;;;;;;;21.84;58.24;99424.00;10325166;23;20020;-79
2022/08/28 09:16:55;;;;;;;;;;;;;;;21.74;58.99;99436.00;10331061;23;20320;-78
2022/08/28 09:20:58;;;;;;;;;;;;;;;21.66;59.33;99431.06;10297699;23;19931;-78
2022/08/28 09:24:59;;;;;;;;;;;;;;;21.60;59.32;99442.81;10273401;23;19930;-78
2022/08/28 09:29:05;;;;;;;1999.90;999.90;;;;;;;21.60;59.91;99437.50;10325322;23;19919;-78
2022/08/28 09:33:07;;;;;;;1999.90;999.90;;;;;;;21.64;60.59;99446.16;10297818;23;20067;-78
2022/08/28 09:37:24;;;;;;;1999.90;999.90;;;;;;;21.66;60.69;99447.78;10323191;23;20020;-79
2022/08/28 09:45:57;;;;;;;1999.90;999.90;;;;;;;21.73;60.70;99447.50;10339665;23;20031;-78
2022/08/28 09:50:40;;;;;;;1999.90;999.90;;;;;;;21.85;61.16;99454.81;10338928;23;20038;-78
2022/08/28 09:54:43;;;;;;;1999.90;999.90;;;;;;;22.07;60.17;99442.25;10315927;23;20023;-78
2022/08/28 09:58:50;;;;;;;1999.90;999.90;;;;;;;22.46;59.58;99441.16;10323160;23;20435;-77
2022/08/28 10:03:16;;;;;;;1999.90;999.90;;;;;;;22.94;57.01;99439.50;10292605;23;20055;-78
2022/08/28 10:07:25;;;;;;;1999.90;999.90;;;;;;;23.46;56.19;99429.50;10322615;23;20061;-78
2022/08/28 10:12:05;;;;;;;1999.90;999.90;;;;;;;23.93;54.49;99445.41;10323290;23;20054;-78
2022/08/28 10:16:15;;;;;;;1999.90;999.90;;;;;;;24.13;53.20;99430.09;10265537;23;20028;-78
2022/08/28 10:20:36;;;;;;;1999.90;999.90;;;;;;;24.69;52.53;99427.53;10321119;23;20023;-78
2022/08/28 10:25:06;;;;;;;1999.90;999.90;;;;;;;25.12;50.75;99430.19;10295534;23;20020;-79
2022/08/28 10:29:10;;;;;;;1999.90;999.90;;;;;;;25.21;48.95;99426.09;10321434;23;20020;-78
2022/08/28 10:33:43;;;;;;;1999.90;999.90;;;;;;;25.41;48.25;99432.81;10321497;23;20024;-78
2022/08/28 10:37:44;;;;;;;;;;;;;;;25.60;47.85;99426.19;10264669;23;20020;-77
2022/08/28 10:41:49;;;;;;;1999.90;999.90;;;;;;;25.86;47.41;99432.50;10323690;23;19930;-78
2022/08/28 10:45:51;;;;;;;1999.90;999.90;;;;;;;25.90;47.23;99417.16;10287806;23;20031;-78
2022/08/28 10:50:00;;;;;;;1999.90;999.90;;;;;;;25.99;46.66;99421.84;10321268;23;20034;-78
2022/08/28 10:54:09;;;;;;;1999.90;999.90;;;;;;;25.93;46.06;99419.63;10320998;22;20019;-78
2022/08/28 10:58:14;;;;;;;1999.90;999.90;;;;;;;25.83;46.94;99421.16;10322256;23;20020;-79
2022/08/28 11:02:29;;;;;;;1999.90;999.90;;;;;;;25.80;47.09;99418.72;10283536;23;20051;-79
2022/08/28 11:06:37;;;;;;;1999.90;999.90;;;;;;;25.79;46.95;99417.03;10321313;23;20031;-79
2022/08/28 11:10:45;;;;;;;1999.90;999.90;;;;;;;25.89;46.63;99424.28;10290410;23;20035;-79
2022/08/28 11:14:50;;;;;;;1999.90;999.90;;;;;;;25.85;47.09;99427.25;10267123;23;20027;-78
2022/08/28 11:19:16;;;;;;;1999.90;999.90;;;;;;;25.93;47.14;99422.28;10292427;23;20031;-79
2022/08/28 11:23:30;;;;;;;1999.90;999.90;;;;;;;26.09;46.57;99411.47;10322110;23;20046;-78
2022/08/28 11:27:36;;;;;;;1999.90;999.90;;;;;;;26.55;46.54;99405.63;10321372;23;20016;-78
2022/08/28 11:31:41;;;;;;;1999.90;999.90;;;;;;;27.03;45.23;99401.34;10316766;22;20051;-79
2022/08/28 11:35:48;;;;;;;1999.90;999.90;;;;;;;27.48;44.20;99409.66;10296172;23;20016;-78
2022/08/28 11:40:27;;;;;;;1999.90;999.90;;;;;;;27.65;42.88;99410.13;10318373;23;20020;-79
2022/08/28 11:45:05;;;;;;;1999.90;999.90;;;;;;;27.74;42.70;99407.72;10314036;23;20012;-78
2022/08/28 11:49:27;;;;;;;1999.90;999.90;;;;;;;27.75;42.57;99390.75;10318540;23;20035;-80
2022/08/28 11:53:55;;;;;;;1999.90;999.90;;;;;;;27.93;43.34;99398.22;10318974;23;20019;-79
2022/08/28 11:58:03;;;;;;;1999.90;999.90;;;;;;;28.17;42.55;99400.81;10314199;23;20024;-78
2022/08/28 12:02:38;;;;;;;1999.90;999.90;;;;;;;28.35;42.50;99403.06;10321010;23;20110;-78
2022/08/28 12:07:10;;;;;;;1999.90;999.90;;;;;;;28.19;41.04;99393.56;10289453;23;20024;-78
2022/08/28 12:11:38;;;;;;;1999.90;999.90;;;;;;;28.26;41.77;99391.28;10286985;23;20020;-78
2022/08/28 12:15:41;;;;;;;1999.90;999.90;;;;;;;28.38;42.14;99379.66;10275447;23;20632;-77
2022/08/28 12:19:54;;;;;;;1999.90;999.90;;;;;;;28.44;41.90;99387.19;10316811;23;20115;-78
2022/08/28 12:24:17;;;;;;;1999.90;999.90;;;;;;;28.07;41.71;99391.84;10315305;23;20028;-78
2022/08/28 12:28:38;;;;;;;1999.90;999.90;;;;;;;27.62;42.51;99386.28;10278872;23;20024;-78
2022/08/28 12:32:50;;;;;;;1999.90;999.90;;;;;;;27.29;43.10;99380.78;10310670;23;20032;-78
2022/08/28 12:37:00;;;;;;;1999.90;999.90;;;;;;;26.94;43.81;99384.19;10310879;23;20043;-79
2022/08/28 12:41:02;;;;;;;1999.90;999.90;;;;;;;26.71;44.26;99380.47;10314019;23;20055;-78
2022/08/28 12:45:09;;;;;;;1999.90;999.90;;;;;;;26.85;44.27;99376.00;10314137;22;20515;-79
2022/08/28 12:49:35;;;;;;;1999.90;999.90;;;;;;;27.42;43.38;99375.41;10289775;23;20032;-78
2022/08/28 12:53:39;;;;;;;1999.90;999.90;;;;;;;27.91;43.03;99368.13;10308285;22;20430;-78
2022/08/28 12:57:44;;;;;;;1999.90;999.90;;;;;;;28.20;41.69;99367.72;10288830;23;20046;-78
2022/08/28 13:01:46;;;;;;;1999.90;999.90;;;;;;;28.43;41.14;99369.47;10279277;23;20035;-77
2022/08/28 13:05:57;;;;;;;1999.90;999.90;;;;;;;28.56;39.65;99358.69;10315396;23;20457;-78
2022/08/28 13:10:05;;;;;;;1999.90;999.90;;;;;;;28.77;41.04;99361.47;10288194;23;20020;-78
2022/08/28 13:14:07;;;;;;;1999.90;999.90;;;;;;;28.83;40.13;99348.44;10266781;23;20391;-77
2022/08/28 13:18:09;;;;;;;1999.90;999.90;;;;;;;28.94;39.49;99350.28;10316078;23;20020;-78
2022/08/28 13:22:31;;;;;;;1999.90;999.90;;;;;;;28.94;39.19;99349.44;10288553;23;20020;-78
2022/08/28 13:26:39;;;;;;;1999.90;999.90;;;;;;;29.17;38.94;99343.06;10313354;23;20024;-77
2022/08/28 13:30:41;;;;;;;1999.90;999.90;;;;;;;29.00;37.72;99340.91;10307640;23;20066;-78
2022/08/28 13:35:20;;;;;;;1999.90;999.90;;;;;;;29.03;39.21;99337.97;10314404;23;20077;-77
2022/08/28 13:39:22;;;;;;;1999.90;999.90;;;;;;;29.27;38.78;99344.00;10287100;23;20358;-78
2022/08/28 13:43:28;;;;;;;1999.90;999.90;;;;;;;28.99;38.75;99331.19;10277918;23;20413;-77
2022/08/28 13:47:30;;;;;;;1999.90;999.90;;;;;;;28.65;39.42;99333.03;10309649;22;20465;-78
2022/08/28 13:51:32;;;;;;;1999.90;999.90;;;;;;;28.32;39.08;99329.38;10314072;23;20030;-78
2022/08/28 13:55:39;;;;;;;1999.90;999.90;;;;;;;28.08;40.40;99323.25;10316483;23;20035;-77
2022/08/28 13:59:41;;;;;;;1999.90;999.90;;;;;;;27.99;41.18;99324.81;10318574;23;20027;-77
2022/08/28 14:03:43;;;;;;;1999.90;999.90;;;;;;;27.88;41.16;99328.31;10313310;23;20024;-78
2022/08/28 14:07:45;;;;;;;1999.90;999.90;;;;;;;27.83;41.42;99327.84;10294101;23;20048;-78
2022/08/28 14:11:47;;;;;;;;;;;;;;;27.80;41.50;99325.38;10320517;23;20039;-78
2022/08/28 14:15:48;;;;;;;1999.90;999.90;;;;;;;27.74;41.68;99322.34;10293396;22;19919;-78
2022/08/28 14:19:50;;;;;;;1999.90;999.90;;;;;;;27.77;40.78;99314.09;10297179;23;20020;-77
2022/08/28 14:23:52;;;;;;;;;;;;;;;27.68;41.32;99318.31;10340133;23;20023;-78
2022/08/28 14:27:54;;;;;;;1999.90;999.90;;;;;;;27.54;41.64;99313.16;10295480;23;20298;-77
2022/08/28 14:31:58;;;;;;;1999.90;999.90;;;;;;;27.77;42.25;99306.09;10331383;23;20035;-77
2022/08/28 14:36:00;;;;;;;1999.90;999.90;;;;;;;27.95;41.14;99310.84;10294722;23;20024;-77
2022/08/28 14:40:04;;;;;;;1999.90;999.90;;;;;;;28.21;41.36;99303.50;10294903;23;20023;-78
2022/08/28 14:44:07;;;;;;;1999.90;999.90;;;;;;;28.42;40.19;99305.47;10295966;23;20124;-78
2022/08/28 14:48:09;;;;;;;1999.90;999.90;;;;;;;28.64;39.66;99307.28;10291882;23;20028;-77
2022/08/28 14:52:10;;;;;;;1999.90;999.90;;;;;;;28.73;38.85;99303.88;10321171;23;20289;-77
2022/08/28 14:56:12;;;;;;;1999.90;999.90;;;;;;;28.61;39.18;99303.03;10319682;23;20027;-78
2022/08/28 15:00:14;;;;;;;1999.90;999.90;;;;;;;28.77;39.26;99287.47;10334568;22;20020;-78
2022/08/28 15:04:21;;;;;;;1999.90;999.90;;;;;;;29.05;38.66;99290.56;10319496;23;20035;-78
2022/08/28 15:08:23;;;;;;;1999.90;999.90;;;;;;;29.34;37.97;99288.16;10294472;23;20049;-77
2022/08/28 15:12:24;;;;;;;1999.90;999.90;;;;;;;29.40;37.24;99287.66;10294974;23;20020;-78
2022/08/28 15:16:29;;;;;;;1999.90;999.90;;;;;;;29.32;37.88;99292.81;10306259;23;20541;-78
2022/08/28 15:20:38;;;;;;;1999.90;999.90;;;;;;;29.39;37.54;99292.16;10294515;23;20028;-78
2022/08/28 15:24:40;;;;;;;1999.90;999.90;;;;;;;29.33;37.73;99289.16;10320124;23;20020;-77
2022/08/28 15:28:42;;;;;;;1999.90;999.90;;;;;;;29.02;37.95;99296.19;10322171;23;20027;-77
2022/08/28 15:32:45;;;;;;;1999.90;999.90;;;;;;;28.64;38.15;99294.75;10292036;23;20035;-77
2022/08/28 15:36:47;;;;;;;1999.90;999.90;;;;;;;28.24;38.65;99295.25;10323387;23;20020;-78
2022/08/28 15:45:17;;;;;;;1999.90;999.90;;;;;;;27.68;40.37;99286.31;10318412;23;20519;-77
2022/08/28 15:49:19;;;;;;;1999.90;999.90;;;;;;;27.49;40.78;99285.97;10320722;23;20368;-77
2022/08/28 15:53:24;;;;;;;1999.90;999.90;;;;;;;27.38;41.17;99290.28;10296515;23;20102;-77
2022/08/28 15:57:25;;;;;;;;;;;;;;;27.24;41.39;99287.81;10334146;23;20062;-77
2022/08/28 16:01:27;;;;;;;1999.90;999.90;;;;;;;27.06;41.48;99289.16;10316685;23;20003;-77
2022/08/28 16:05:33;;;;;;;1999.90;999.90;;;;;;;27.16;41.83;99294.69;10320596;23;20016;-77
2022/08/28 16:09:39;;;;;;;1999.90;999.90;;;;;;;27.53;40.99;99285.63;10295900;23;20407;-76
2022/08/28 16:13:41;;;;;;;1999.90;999.90;;;;;;;27.53;40.40;99277.63;10293457;23;20024;-77
2022/08/28 16:17:42;;;;;;;;;;;;;;;27.36;40.63;99280.72;10289767;23;20475;-77
2022/08/28 16:21:44;;;;;;;1999.90;999.90;;;;;;;27.07;41.31;99278.38;10321063;23;20156;-77
2022/08/28 16:25:46;;;;;;;1999.90;999.90;;;;;;;26.86;42.02;99279.94;10321079;23;20083;-77
2022/08/28 16:29:48;;;;;;;1999.90;999.90;;;;;;;26.69;42.79;99282.97;10318870;23;20016;-77
2022/08/28 16:33:53;;;;;;;1999.90;999.90;;;;;;;26.69;42.56;99283.84;10314162;23;20102;-77
2022/08/28 16:37:56;;;;;;;1999.90;999.90;;;;;;;26.59;42.33;99281.97;10319623;23;20020;-77
2022/08/28 16:41:58;;;;;;;1999.90;999.90;;;;;;;26.45;42.02;99289.13;10320717;23;20020;-77
2022/08/28 16:46:00;;;;;;;1999.90;999.90;;;;;;;26.37;42.27;99282.63;10316992;22;20427;-77
2022/08/28 16:50:07;;;;;;;1999.90;999.90;;;;;;;26.25;42.32;99284.34;10319953;23;20024;-77
2022/08/28 16:54:08;;;;;;;1999.90;999.90;;;;;;;26.12;42.96;99287.00;10319371;22;20020;-77
2022/08/28 16:58:11;;;;;;;1999.90;999.90;;;;;;;25.98;42.82;99295.09;10320485;23;20366;-77
2022/08/28 17:02:21;;;;;;;1999.90;999.90;;;;;;;25.84;43.09;99285.38;10278078;23;20024;-77
2022/08/28 17:06:29;;;;;;;1999.90;999.90;;;;;;;25.68;43.60;99282.09;10294021;23;20058;-77
2022/08/28 17:10:30;;;;;;;1999.90;999.90;;;;;;;25.54;44.03;99279.50;10260083;23;20024;-77
2022/08/28 17:14:32;;;;;;;1999.90;999.90;;;;;;;25.43;44.01;99269.56;10294191;23;20008;-77
2022/08/28 17:18:35;;;;;;;1999.90;999.90;;;;;;;25.34;44.42;99277.31;10313346;23;20024;-77
2022/08/28 17:22:38;;;;;;;1999.90;999.90;;;;;;;25.20;44.52;99284.41;10259708;23;20763;-77
2022/08/28 17:26:40;;;;;;;1999.90;999.90;;;;;;;25.10;45.29;99275.31;10321163;23;20023;-78
2022/08/28 17:30:42;;;;;;;1999.90;999.90;;;;;;;25.00;44.78;99283.06;10321075;23;20027;-77
2022/08/28 17:34:44;;;;;;;;;;;;;;;24.94;44.96;99283.41;10295112;23;20063;-77
2022/08/28 17:38:46;;;;;;;1999.90;999.90;;;;;;;24.85;45.17;99288.47;10321443;23;19920;-77
2022/08/28 17:42:47;;;;;;;1999.90;999.90;;;;;;;24.73;45.83;99289.25;10320053;23;20016;-77
2022/08/28 17:46:50;;;;;;;1999.90;999.90;;;;;;;24.62;46.42;99292.63;10315174;23;20111;-77
2022/08/28 17:50:52;;;;;;;1999.90;999.90;;;;;;;24.52;45.95;99302.09;10320395;23;20027;-77
2022/08/28 17:54:54;;;;;;;1999.90;999.90;;;;;;;24.42;46.09;99299.19;10337641;22;20048;-77
2022/08/28 17:58:56;;;;;;;1999.90;999.90;;;;;;;24.30;47.16;99300.78;10320170;23;20020;-76
2022/08/28 18:02:58;;;;;;;1999.90;999.90;;;;;;;24.22;47.39;99294.19;10288722;23;20444;-77
2022/08/28 18:07:00;;;;;;;1999.90;999.90;;;;;;;24.08;47.84;99301.25;10320985;23;20368;-77
2022/08/28 18:11:02;;;;;;;;;;;;;;;23.91;48.79;99298.75;10334662;23;20051;-77
2022/08/28 18:15:07;;;;;;;1999.90;999.90;;;;;;;23.67;50.45;99303.72;10261991;22;19919;-76
2022/08/28 18:19:09;;;;;;;1999.90;999.90;;;;;;;23.41;49.51;99304.38;10316213;23;20052;-76
2022/08/28 18:23:11;;;;;;;1999.90;999.90;;;;;;;23.31;49.92;99317.28;10319827;23;20031;-76
2022/08/28 18:27:15;;;;;;;1999.90;999.90;;;;;;;23.24;50.12;99325.69;10316501;23;20024;-76
2022/08/28 18:31:17;;;;;;;1999.90;999.90;;;;;;;23.16;49.96;99326.09;10301247;23;20051;-76
2022/08/28 18:35:20;;;;;;;1999.90;999.90;;;;;;;23.10;49.17;99332.63;10282669;23;20046;-76
2022/08/28 18:39:34;;;;;;;1999.90;999.90;;;;;;;23.01;49.83;99335.81;10292842;23;20116;-77
2022/08/28 18:43:36;;;;;;;1999.90;999.90;;;;;;;22.93;50.26;99340.66;10293611;23;20016;-77
2022/08/28 18:47:38;;;;;;;1999.90;999.90;;;;;;;22.86;50.66;99350.75;10315648;23;20024;-77
2022/08/28 18:51:42;;;;;;;1999.90;999.90;;;;;;;22.75;51.55;99341.66;10294315;23;20020;-77
2022/08/28 18:55:44;;;;;;;1999.90;999.90;;;;;;;22.55;53.45;99346.22;10262768;23;20391;-77
2022/08/28 18:59:47;;;;;;;1999.90;999.90;;;;;;;22.28;54.16;99353.88;10319475;23;20031;-76
2022/08/28 19:03:49;;;;;;;1999.90;999.90;;;;;;;22.12;54.28;99366.19;10309843;23;20024;-77
2022/08/28 19:07:50;;;;;;;1999.90;999.90;;;;;;;21.95;54.47;99374.09;10314077;23;20020;-77
2022/08/28 19:11:52;;;;;;;1999.90;999.90;;;;;;;21.90;53.95;99386.69;10316774;23;20059;-76
2022/08/28 19:15:54;;;;;;;1999.90;999.90;;;;;;;21.88;53.90;99388.53;10312018;22;20027;-76